createdAt,value
2022-12-17T00:01:06.136Z,18.77
2022-12-17T00:03:52.659Z,19.38
2022-12-17T00:06:38.348Z,21.83
2022-12-17T00:09:24.094Z,18.40
2022-12-17T00:12:09.835Z,18.52
2022-12-17T00:14:55.728Z,18.27
2022-12-17T00:17:42.139Z,20.33
2022-12-17T00:20:28.788Z,18.40
2022-12-17T00:23:21.807Z,17.73
2022-12-17T00:26:11.914Z,19.35
2022-12-17T00:28:57.842Z,18.30
2022-12-17T00:31:48.337Z,19.17
2022-12-17T00:34:34.388Z,19.80
2022-12-17T00:37:20.205Z,20.00
2022-12-17T00:40:05.562Z,20.35
2022-12-17T00:42:51.320Z,20.13
2022-12-17T00:45:37.564Z,20.05
2022-12-17T00:48:23.259Z,20.20
2022-12-17T00:51:08.679Z,20.50
2022-12-17T00:53:54.262Z,19.83
2022-12-17T00:56:40.491Z,20.23
2022-12-17T00:59:26.291Z,19.42
2022-12-17T01:02:11.746Z,19.65
2022-12-17T01:04:57.232Z,18.80
2022-12-17T01:07:42.921Z,19.30
2022-12-17T01:10:28.495Z,17.85
2022-12-17T01:13:16.550Z,18.98
2022-12-17T01:16:02.512Z,19.08
2022-12-17T01:18:48.136Z,18.15
2022-12-17T01:21:34.910Z,20.13
2022-12-17T01:24:21.017Z,19.95
2022-12-17T01:27:06.878Z,16.02
2022-12-17T01:29:52.715Z,19.70
2022-12-17T01:32:41.753Z,21.63
2022-12-17T01:35:27.266Z,18.50
2022-12-17T01:38:13.199Z,18.10
2022-12-17T01:41:00.323Z,20.92
2022-12-17T01:43:54.138Z,19.13
2022-12-17T01:46:41.316Z,18.45
2022-12-17T01:49:29.578Z,18.60
2022-12-17T01:52:15.631Z,21.10
2022-12-17T01:55:01.359Z,18.80
2022-12-17T01:57:47.165Z,18.65
2022-12-17T02:00:34.741Z,18.48
2022-12-17T02:03:23.259Z,19.67
2022-12-17T02:06:15.471Z,18.75
2022-12-17T02:09:28.675Z,20.88
2022-12-17T02:12:24.001Z,17.83
2022-12-17T02:15:52.477Z,20.63
2022-12-17T02:18:44.322Z,17.45
2022-12-17T02:21:31.097Z,18.42
2022-12-17T02:24:35.412Z,19.60
2022-12-17T02:27:26.791Z,19.52
2022-12-17T02:30:16.319Z,17.73
2022-12-17T02:33:04.737Z,17.73
2022-12-17T02:35:59.295Z,18.52
2022-12-17T02:38:49.815Z,17.75
2022-12-17T02:42:00.969Z,17.42
2022-12-17T02:44:48.904Z,19.10
2022-12-17T02:47:36.344Z,18.23
2022-12-17T02:50:36.822Z,18.83
2022-12-17T02:53:23.209Z,17.67
2022-12-17T02:56:22.795Z,17.85
2022-12-17T02:59:08.610Z,16.60
2022-12-17T03:01:54.246Z,16.50
2022-12-17T03:04:39.940Z,19.42
2022-12-17T03:07:25.019Z,16.90
2022-12-17T03:10:11.105Z,17.55
2022-12-17T03:13:00.546Z,19.80
2022-12-17T03:15:46.389Z,19.67
2022-12-17T03:18:32.259Z,16.80
2022-12-17T03:21:18.223Z,17.67
2022-12-17T03:24:03.512Z,20.05
2022-12-17T03:26:49.855Z,18.15
2022-12-17T03:29:35.305Z,17.70
2022-12-17T03:32:21.175Z,18.67
2022-12-17T03:35:06.622Z,17.08
2022-12-17T03:37:52.453Z,16.92
2022-12-17T03:40:38.219Z,16.77
2022-12-17T03:43:25.637Z,16.58
2022-12-17T03:46:20.275Z,17.30
2022-12-17T03:49:05.870Z,17.40
2022-12-17T03:51:51.077Z,17.33
2022-12-17T03:54:36.869Z,16.25
2022-12-17T03:57:22.367Z,17.40
2022-12-17T04:00:08.279Z,17.20
2022-12-17T04:02:59.377Z,17.92
2022-12-17T04:05:45.576Z,17.98
2022-12-17T04:08:30.996Z,18.98
2022-12-17T04:11:16.820Z,18.60
2022-12-17T04:14:01.875Z,21.17
2022-12-17T04:16:47.662Z,17.92
2022-12-17T04:19:32.856Z,19.67
2022-12-17T04:22:18.754Z,19.08
2022-12-17T04:25:04.157Z,18.90
2022-12-17T04:27:49.824Z,17.02
2022-12-17T04:30:35.477Z,18.70
2022-12-17T04:33:21.207Z,17.77
2022-12-17T04:36:06.714Z,17.48
2022-12-17T04:38:52.652Z,16.58
2022-12-17T04:41:38.304Z,18.10
2022-12-17T04:44:24.289Z,17.35
2022-12-17T04:47:09.734Z,18.67
2022-12-17T04:49:55.771Z,17.75
2022-12-17T04:52:41.006Z,17.00
2022-12-17T04:55:26.756Z,16.77
2022-12-17T04:58:12.395Z,16.80
2022-12-17T05:00:58.102Z,17.38
2022-12-17T05:03:43.701Z,17.23
2022-12-17T05:06:29.627Z,15.00
2022-12-17T05:09:15.014Z,17.02
2022-12-17T05:12:00.740Z,16.48
2022-12-17T05:14:46.210Z,16.77
2022-12-17T05:17:32.011Z,15.00
2022-12-17T05:20:17.484Z,15.88
2022-12-17T05:23:03.139Z,15.85
2022-12-17T05:25:48.680Z,16.25
2022-12-17T05:28:34.456Z,15.75
2022-12-17T05:31:20.543Z,15.48
2022-12-17T05:34:06.388Z,16.17
2022-12-17T05:36:51.472Z,15.85
2022-12-17T05:39:37.281Z,15.63
2022-12-17T05:42:22.722Z,16.45
2022-12-17T05:45:08.382Z,17.23
2022-12-17T05:47:53.943Z,17.10
2022-12-17T05:50:39.828Z,15.75
2022-12-17T05:53:25.371Z,15.23
2022-12-17T05:56:12.016Z,14.95
2022-12-17T05:58:58.492Z,15.15
2022-12-17T06:01:44.160Z,19.88
2022-12-17T06:04:29.765Z,16.48
2022-12-17T06:07:15.391Z,18.20
2022-12-17T06:10:00.861Z,17.10
2022-12-17T06:12:46.637Z,16.35
2022-12-17T06:15:32.142Z,14.98
2022-12-17T06:18:17.970Z,17.30
2022-12-17T06:21:04.698Z,15.43
2022-12-17T06:23:50.647Z,15.57
2022-12-17T06:26:35.967Z,16.40
2022-12-17T06:29:21.495Z,16.80
2022-12-17T06:32:06.982Z,17.73
2022-12-17T06:34:52.707Z,15.65
2022-12-17T06:37:38.551Z,17.02
2022-12-17T06:40:24.785Z,17.98
2022-12-17T06:43:14.274Z,17.73
2022-12-17T06:46:00.653Z,17.30
2022-12-17T06:48:45.862Z,15.88
2022-12-17T06:51:31.629Z,15.63
2022-12-17T06:54:17.283Z,14.55
2022-12-17T06:57:03.031Z,16.35
2022-12-17T06:59:48.446Z,17.52
2022-12-17T07:02:35.317Z,17.33
2022-12-17T07:05:20.707Z,15.65
2022-12-17T07:08:06.583Z,16.30
2022-12-17T07:10:52.015Z,17.15
2022-12-17T07:13:38.347Z,15.80
2022-12-17T07:16:24.640Z,14.70
2022-12-17T07:19:10.354Z,14.82
2022-12-17T07:21:55.963Z,15.20
2022-12-17T07:24:41.579Z,16.27
2022-12-17T07:27:27.184Z,14.73
2022-12-17T07:30:13.057Z,14.90
2022-12-17T07:32:58.574Z,15.80
2022-12-17T07:35:44.727Z,14.48
2022-12-17T07:38:30.079Z,16.25
2022-12-17T07:41:17.834Z,15.38
2022-12-17T07:44:03.142Z,14.77
2022-12-17T07:46:48.818Z,15.20
2022-12-17T07:49:34.396Z,15.32
2022-12-17T07:52:20.154Z,16.13
2022-12-17T07:55:05.661Z,16.90
2022-12-17T07:57:51.569Z,15.32
2022-12-17T08:00:56.942Z,13.65
2022-12-17T08:03:42.825Z,16.95
2022-12-17T08:06:28.844Z,16.55
2022-12-17T08:09:14.807Z,17.05
2022-12-17T08:12:00.397Z,16.52
2022-12-17T08:14:46.275Z,16.25
2022-12-17T08:17:31.756Z,16.70
2022-12-17T08:20:19.177Z,15.98
2022-12-17T08:23:06.557Z,15.60
2022-12-17T08:25:52.331Z,16.20
2022-12-17T08:28:53.130Z,16.63
2022-12-17T08:31:39.757Z,17.50
2022-12-17T08:34:25.212Z,16.77
2022-12-17T08:37:11.800Z,16.33
2022-12-17T08:39:56.954Z,17.55
2022-12-17T08:42:42.777Z,18.05
2022-12-17T08:45:28.699Z,19.42
2022-12-17T08:48:23.255Z,18.02
2022-12-17T08:51:08.970Z,18.35
2022-12-17T08:53:54.999Z,18.38
2022-12-17T08:56:40.397Z,17.52
2022-12-17T08:59:26.127Z,18.80
2022-12-17T09:02:11.772Z,18.15
2022-12-17T09:04:57.852Z,18.42
2022-12-17T09:07:43.678Z,18.35
2022-12-17T09:10:29.502Z,17.38
2022-12-17T10:45:11.029Z,23.60
2022-12-17T10:48:02.454Z,21.33
2022-12-17T10:50:51.315Z,20.90
2022-12-17T10:53:41.022Z,17.83
2022-12-17T10:56:38.773Z,21.35
2022-12-17T10:59:31.495Z,18.85
2022-12-17T11:02:18.356Z,18.50
2022-12-17T11:05:12.018Z,19.85
2022-12-17T11:08:02.776Z,19.48
2022-12-17T11:10:52.215Z,19.70
2022-12-17T11:13:51.778Z,17.85
2022-12-17T11:16:42.708Z,19.35
2022-12-17T11:19:28.237Z,18.52
2022-12-17T11:22:20.450Z,16.60
2022-12-17T11:25:31.971Z,18.02
2022-12-17T11:31:30.145Z,18.65
2022-12-17T11:34:29.333Z,15.68
2022-12-17T11:37:24.787Z,16.23
2022-12-17T11:40:26.929Z,17.52
2022-12-17T11:43:33.650Z,17.88
2022-12-17T11:46:57.352Z,17.85
2022-12-17T11:49:50.821Z,19.98
2022-12-17T11:53:08.036Z,21.48
2022-12-17T11:56:11.638Z,17.65
2022-12-17T11:59:03.730Z,21.60
2022-12-17T12:02:10.347Z,19.08
2022-12-17T12:05:22.994Z,21.67
2022-12-17T12:08:40.205Z,18.63
2022-12-17T12:11:42.745Z,19.42
2022-12-17T12:14:54.333Z,16.40
2022-12-17T12:18:12.558Z,16.40
2022-12-17T12:21:25.857Z,15.65
2022-12-17T12:24:38.760Z,14.75
2022-12-17T12:27:42.643Z,16.20
2022-12-17T12:30:35.442Z,15.98
2022-12-17T12:33:56.987Z,16.27
2022-12-17T12:36:45.725Z,15.57
2022-12-17T12:39:38.038Z,16.23
2022-12-17T12:42:42.721Z,15.70
2022-12-17T12:49:05.826Z,16.80
2022-12-17T12:51:56.706Z,14.80
2022-12-17T12:55:12.490Z,15.48
2022-12-17T12:58:13.292Z,15.32
2022-12-17T13:01:11.430Z,16.38
2022-12-17T13:04:03.266Z,16.77
2022-12-17T13:06:42.251Z,18.00
2022-12-17T13:09:15.344Z,16.33
2022-12-17T13:12:02.473Z,17.33
2022-12-17T13:14:44.037Z,16.42
2022-12-17T13:17:17.311Z,16.83
2022-12-17T13:20:00.411Z,17.17
2022-12-17T13:22:27.177Z,17.73
2022-12-17T13:24:57.895Z,18.45
2022-12-17T13:27:34.499Z,19.00
2022-12-17T13:30:21.531Z,17.88
2022-12-17T13:33:13.237Z,16.58
2022-12-17T13:35:49.122Z,18.63
2022-12-17T13:38:19.030Z,18.98
2022-12-17T13:41:10.526Z,18.38
2022-12-17T13:46:25.247Z,17.60
2022-12-17T13:49:00.299Z,19.38
2022-12-17T13:51:30.230Z,19.10
2022-12-17T13:53:59.739Z,18.38
2022-12-17T13:56:31.028Z,18.10
2022-12-17T13:59:03.158Z,21.05
2022-12-17T14:01:44.303Z,19.77
2022-12-17T14:04:27.523Z,21.50
2022-12-17T14:06:58.383Z,18.77
2022-12-17T14:09:36.587Z,21.90
2022-12-17T14:12:24.713Z,21.50
2022-12-17T14:15:01.339Z,22.20
2022-12-17T14:17:35.726Z,21.65
2022-12-17T14:20:04.251Z,20.40
2022-12-17T14:22:42.862Z,20.98
2022-12-17T14:25:18.505Z,20.70
2022-12-17T14:28:00.405Z,17.98
2022-12-17T14:30:33.064Z,17.30
2022-12-17T14:33:00.434Z,18.65
2022-12-17T14:35:36.167Z,18.45
2022-12-17T14:38:04.917Z,20.38
2022-12-17T14:40:32.322Z,19.13
2022-12-17T14:43:01.077Z,20.23
2022-12-17T14:45:29.243Z,18.02
2022-12-17T14:48:01.845Z,19.98
2022-12-17T14:50:33.443Z,19.63
2022-12-17T14:53:03.407Z,20.50
2022-12-17T14:55:33.450Z,19.48
2022-12-17T14:58:29.667Z,19.60
2022-12-17T15:01:04.031Z,20.42
2022-12-17T15:03:33.651Z,19.55
2022-12-17T15:06:03.554Z,18.67
2022-12-17T15:08:36.078Z,18.17
2022-12-17T15:11:03.746Z,17.08
2022-12-17T15:13:31.333Z,19.88
2022-12-17T15:15:58.244Z,18.77
2022-12-17T15:18:25.624Z,19.17
2022-12-17T15:21:11.745Z,18.75
2022-12-17T15:23:43.228Z,19.55
2022-12-17T15:26:11.380Z,21.45
2022-12-17T15:28:39.107Z,20.83
2022-12-17T15:31:06.264Z,18.25
2022-12-17T15:33:33.411Z,24.38
2022-12-17T15:36:00.246Z,18.08
2022-12-17T15:38:27.788Z,19.70
2022-12-17T15:40:54.988Z,19.38
2022-12-17T15:43:22.447Z,21.85
2022-12-17T15:45:51.856Z,20.10
2022-12-17T15:48:21.666Z,19.20
2022-12-17T15:50:48.920Z,20.95
2022-12-17T15:53:16.806Z,21.08
2022-12-17T15:55:43.689Z,18.42
2022-12-17T15:58:11.652Z,21.73
2022-12-17T16:00:38.885Z,22.75
2022-12-17T16:03:06.194Z,22.33
2022-12-17T16:05:33.374Z,22.02
2022-12-17T16:08:02.596Z,21.65
2022-12-17T16:10:30.199Z,23.63
2022-12-17T16:12:57.986Z,22.23
2022-12-17T16:15:24.889Z,25.13
2022-12-17T16:17:52.066Z,22.92
2022-12-17T16:20:20.022Z,24.15
2022-12-17T16:22:47.195Z,23.42
2022-12-17T16:25:14.156Z,23.50
2022-12-17T16:27:41.588Z,28.58
2022-12-17T16:30:09.645Z,23.20
2022-12-17T16:32:37.461Z,24.73
2022-12-17T16:35:05.321Z,25.52
2022-12-17T16:37:32.630Z,24.98
2022-12-17T16:40:00.311Z,24.05
2022-12-17T16:42:28.111Z,24.75
2022-12-17T16:44:55.116Z,24.23
2022-12-17T16:47:22.384Z,23.73
2022-12-17T16:49:52.340Z,27.55
2022-12-17T16:52:19.438Z,23.45
2022-12-17T16:54:46.297Z,24.58
2022-12-17T16:57:13.486Z,23.45
2022-12-17T16:59:40.352Z,21.95
2022-12-17T17:02:16.811Z,22.38
2022-12-17T17:04:43.938Z,24.63
2022-12-17T17:07:11.112Z,22.98
2022-12-17T17:09:38.649Z,27.90
2022-12-17T17:12:07.605Z,22.50
2022-12-17T17:14:34.526Z,21.25
2022-12-17T17:17:01.626Z,21.75
2022-12-17T17:19:28.515Z,21.33
2022-12-17T17:21:55.673Z,23.50
2022-12-17T17:24:25.591Z,21.10
2022-12-17T17:26:54.121Z,19.63
2022-12-17T17:29:21.476Z,19.98
2022-12-17T17:34:35.425Z,19.02
2022-12-17T17:37:02.598Z,18.10
2022-12-17T17:39:33.181Z,20.05
2022-12-17T17:42:01.032Z,20.58
2022-12-17T17:44:27.848Z,18.17
2022-12-17T17:46:55.119Z,18.58
2022-12-17T17:49:22.355Z,18.73
2022-12-17T17:54:38.221Z,17.95
2022-12-17T17:57:05.395Z,20.55
2022-12-17T17:59:34.042Z,18.00
2022-12-17T18:02:02.733Z,16.60
2022-12-17T18:04:30.447Z,17.70
2022-12-17T18:09:44.796Z,17.63
2022-12-17T18:12:30.479Z,15.88
2022-12-17T18:15:13.815Z,16.42
2022-12-17T18:17:43.245Z,15.13
2022-12-17T18:20:12.436Z,16.63
2022-12-17T18:22:39.802Z,17.98
2022-12-17T18:25:06.841Z,17.52
2022-12-17T18:27:34.021Z,16.15
2022-12-17T18:30:00.857Z,14.85
2022-12-17T18:32:28.394Z,15.93
2022-12-17T18:34:55.238Z,17.50
2022-12-17T18:37:22.446Z,14.30
2022-12-17T18:39:49.426Z,15.38
2022-12-17T18:42:35.087Z,14.82
2022-12-17T18:45:03.361Z,16.05
2022-12-17T18:47:30.666Z,14.23
2022-12-17T18:49:57.608Z,15.18
2022-12-17T18:52:24.911Z,14.50
2022-12-17T18:54:51.807Z,15.13
2022-12-17T18:57:19.039Z,14.82
2022-12-17T18:59:45.995Z,17.23
2022-12-17T19:02:13.464Z,14.25
2022-12-17T19:04:40.626Z,13.93
2022-12-17T19:07:07.765Z,13.45
2022-12-17T19:09:35.743Z,13.38
2022-12-17T19:12:05.037Z,16.95
2022-12-17T19:14:32.406Z,15.27
2022-12-17T19:16:59.878Z,12.82
2022-12-17T19:19:26.834Z,18.13
2022-12-17T19:21:55.345Z,17.73
2022-12-17T19:24:23.108Z,16.58
2022-12-17T19:26:51.567Z,15.25
2022-12-17T19:29:20.220Z,14.93
2022-12-17T19:31:47.795Z,16.15
2022-12-17T19:34:16.368Z,14.43
2022-12-17T19:36:44.380Z,14.15
2022-12-17T19:39:13.545Z,17.55
2022-12-17T19:41:40.961Z,17.10
2022-12-17T19:44:12.731Z,16.30
2022-12-17T19:46:39.913Z,16.20
2022-12-17T19:49:08.523Z,14.23
2022-12-17T19:51:39.625Z,15.45
2022-12-17T19:54:09.258Z,16.15
2022-12-17T19:56:36.920Z,15.82
2022-12-17T19:59:07.667Z,16.65
2022-12-17T20:01:37.807Z,19.55
2022-12-17T20:04:05.741Z,16.42
2022-12-17T20:06:34.642Z,16.73
2022-12-17T20:09:04.171Z,16.65
2022-12-17T20:11:34.846Z,15.27
2022-12-17T20:14:01.905Z,19.42
2022-12-17T20:16:31.394Z,18.60
2022-12-17T20:18:59.677Z,17.70
2022-12-17T20:21:27.425Z,18.42
2022-12-17T20:23:54.649Z,18.88
2022-12-17T20:26:22.237Z,18.00
2022-12-17T20:28:49.152Z,19.73
2022-12-17T20:31:16.879Z,18.98
2022-12-17T20:33:44.326Z,20.33
2022-12-17T20:36:14.910Z,24.02
2022-12-17T20:38:43.609Z,16.93
2022-12-17T20:41:11.085Z,25.08
2022-12-17T20:43:38.338Z,21.02
2022-12-17T20:46:06.293Z,19.02
2022-12-17T20:48:33.310Z,21.83
2022-12-17T20:51:05.389Z,19.63
2022-12-17T20:53:33.738Z,19.70
2022-12-17T20:56:07.096Z,22.63
2022-12-17T20:58:34.185Z,20.65
2022-12-17T21:01:05.874Z,21.80
2022-12-17T21:03:33.696Z,20.05
2022-12-17T21:06:06.916Z,19.25
2022-12-17T21:08:34.132Z,18.05
2022-12-17T21:11:01.590Z,18.70
2022-12-17T21:13:31.315Z,21.38
2022-12-17T21:16:00.895Z,18.98
2022-12-17T21:18:29.731Z,18.35
2022-12-17T21:21:02.793Z,17.75
2022-12-17T21:23:30.873Z,19.67
2022-12-17T21:26:22.925Z,20.52
2022-12-17T21:31:24.475Z,17.10
2022-12-17T21:33:54.193Z,17.35
2022-12-17T21:36:22.949Z,16.73
2022-12-17T21:38:51.518Z,17.75
2022-12-17T21:41:32.727Z,17.73
2022-12-17T21:44:02.328Z,21.25
2022-12-17T21:46:30.642Z,17.20
2022-12-17T21:48:59.346Z,16.65
2022-12-17T21:51:27.418Z,17.73
2022-12-17T21:53:57.426Z,19.67
2022-12-17T21:56:25.203Z,18.30
2022-12-17T21:58:57.902Z,22.25
2022-12-17T22:01:27.846Z,17.52
2022-12-17T22:03:58.442Z,20.02
2022-12-17T22:06:32.010Z,15.70
2022-12-17T22:09:03.753Z,17.00
2022-12-17T22:11:38.894Z,18.48
2022-12-17T22:14:09.460Z,15.80
2022-12-17T22:16:40.353Z,17.48
2022-12-17T22:19:10.277Z,16.80
2022-12-17T22:21:39.883Z,16.40
2022-12-17T22:24:07.136Z,18.92
2022-12-17T22:26:34.670Z,16.75
2022-12-17T22:29:01.669Z,19.42
2022-12-17T22:31:48.157Z,17.92
2022-12-17T22:35:44.345Z,19.10
2022-12-17T22:38:44.095Z,16.83
2022-12-17T22:43:11.063Z,17.08
2022-12-17T22:44:44.520Z,17.00
2022-12-17T22:45:43.887Z,17.02
2022-12-17T22:48:12.762Z,18.15
2022-12-17T22:50:48.463Z,17.17
2022-12-17T22:53:18.699Z,18.00
2022-12-17T22:55:45.912Z,20.15
2022-12-17T22:58:13.199Z,18.55
2022-12-17T23:00:40.028Z,18.40
2022-12-17T23:03:07.282Z,17.45
2022-12-17T23:05:34.390Z,19.63
2022-12-17T23:08:01.716Z,18.35
2022-12-17T23:10:28.640Z,19.15
2022-12-17T23:12:56.158Z,16.63
2022-12-17T23:15:24.637Z,19.30
2022-12-17T23:17:53.182Z,18.02
2022-12-17T23:20:20.112Z,21.77
2022-12-17T23:22:47.638Z,18.95
2022-12-17T23:25:15.539Z,23.65
2022-12-17T23:27:43.527Z,19.20
2022-12-17T23:30:11.869Z,19.15
2022-12-17T23:32:39.071Z,20.17
2022-12-17T23:35:06.469Z,18.13
2022-12-17T23:37:39.533Z,20.13
2022-12-17T23:40:09.268Z,16.88
2022-12-17T23:42:36.438Z,17.77
2022-12-17T23:45:04.075Z,17.05
2022-12-17T23:47:31.879Z,18.08
2022-12-17T23:49:58.783Z,16.65
2022-12-17T23:52:25.952Z,16.90
2022-12-17T23:54:52.867Z,16.83
2022-12-17T23:57:20.093Z,16.60
2022-12-17T23:59:46.944Z,19.27
